sensor_id;sensor_type;location;lat;lon;timestamp;P1;durP1;ratioP1;P2;durP2;ratioP2
80392;SDS011;69719;45.544;10.218;2023-06-14T00:00:19;13.35;;;10.07;;
80392;SDS011;69719;45.544;10.218;2023-06-14T00:02:45;15.98;;;11.00;;
80392;SDS011;69719;45.544;10.218;2023-06-14T00:05:11;19.73;;;10.07;;
80392;SDS011;69719;45.544;10.218;2023-06-14T00:07:41;13.38;;;9.77;;
80392;SDS011;69719;45.544;10.218;2023-06-14T00:10:10;16.15;;;10.55;;
80392;SDS011;69719;45.544;10.218;2023-06-14T00:12:37;14.93;;;11.00;;
80392;SDS011;69719;45.544;10.218;2023-06-14T00:15:04;17.38;;;10.38;;
80392;SDS011;69719;45.544;10.218;2023-06-14T00:17:30;19.92;;;11.95;;
80392;SDS011;69719;45.544;10.218;2023-06-14T00:19:56;15.48;;;10.80;;
80392;SDS011;69719;45.544;10.218;2023-06-14T00:22:23;15.65;;;11.43;;
80392;SDS011;69719;45.544;10.218;2023-06-14T00:24:53;20.40;;;11.70;;
80392;SDS011;69719;45.544;10.218;2023-06-14T00:27:19;13.88;;;8.80;;
80392;SDS011;69719;45.544;10.218;2023-06-14T00:29:45;13.07;;;9.20;;
80392;SDS011;69719;45.544;10.218;2023-06-14T00:32:10;15.35;;;9.90;;
80392;SDS011;69719;45.544;10.218;2023-06-14T00:34:36;12.07;;;8.68;;
80392;SDS011;69719;45.544;10.218;2023-06-14T00:37:02;14.73;;;8.50;;
80392;SDS011;69719;45.544;10.218;2023-06-14T00:39:27;14.27;;;8.25;;
80392;SDS011;69719;45.544;10.218;2023-06-14T00:41:53;14.30;;;7.22;;
80392;SDS011;69719;45.544;10.218;2023-06-14T00:44:18;12.45;;;7.90;;
80392;SDS011;69719;45.544;10.218;2023-06-14T00:46:45;10.15;;;7.25;;
80392;SDS011;69719;45.544;10.218;2023-06-14T00:49:11;10.57;;;6.88;;
80392;SDS011;69719;45.544;10.218;2023-06-14T00:51:40;8.52;;;6.68;;
80392;SDS011;69719;45.544;10.218;2023-06-14T00:54:06;13.75;;;7.65;;
80392;SDS011;69719;45.544;10.218;2023-06-14T00:56:32;9.73;;;6.50;;
80392;SDS011;69719;45.544;10.218;2023-06-14T00:58:58;10.25;;;6.18;;
80392;SDS011;69719;45.544;10.218;2023-06-14T01:01:23;10.05;;;6.75;;
80392;SDS011;69719;45.544;10.218;2023-06-14T01:03:49;11.35;;;6.72;;
80392;SDS011;69719;45.544;10.218;2023-06-14T01:13:29;12.90;;;7.57;;
80392;SDS011;69719;45.544;10.218;2023-06-14T01:15:38;17.40;;;7.88;;
80392;SDS011;69719;45.544;10.218;2023-06-14T01:18:05;17.77;;;8.70;;
80392;SDS011;69719;45.544;10.218;2023-06-14T01:20:32;10.82;;;7.95;;
80392;SDS011;69719;45.544;10.218;2023-06-14T01:23:01;13.20;;;8.30;;
80392;SDS011;69719;45.544;10.218;2023-06-14T01:25:27;12.90;;;8.88;;
80392;SDS011;69719;45.544;10.218;2023-06-14T01:27:53;12.43;;;9.20;;
80392;SDS011;69719;45.544;10.218;2023-06-14T01:30:23;13.13;;;8.60;;
80392;SDS011;69719;45.544;10.218;2023-06-14T01:32:53;11.98;;;8.77;;
80392;SDS011;69719;45.544;10.218;2023-06-14T01:35:20;14.90;;;8.95;;
80392;SDS011;69719;45.544;10.218;2023-06-14T01:37:47;14.02;;;9.35;;
80392;SDS011;69719;45.544;10.218;2023-06-14T01:40:13;13.95;;;9.38;;
80392;SDS011;69719;45.544;10.218;2023-06-14T01:42:40;14.73;;;9.52;;
80392;SDS011;69719;45.544;10.218;2023-06-14T01:45:07;15.95;;;9.75;;
80392;SDS011;69719;45.544;10.218;2023-06-14T01:47:34;12.02;;;8.55;;
80392;SDS011;69719;45.544;10.218;2023-06-14T01:50:01;13.82;;;8.77;;
80392;SDS011;69719;45.544;10.218;2023-06-14T01:52:28;15.00;;;8.50;;
80392;SDS011;69719;45.544;10.218;2023-06-14T01:54:53;12.35;;;8.07;;
80392;SDS011;69719;45.544;10.218;2023-06-14T01:57:19;11.05;;;7.88;;
80392;SDS011;69719;45.544;10.218;2023-06-14T01:59:45;12.75;;;7.88;;
80392;SDS011;69719;45.544;10.218;2023-06-14T02:02:13;12.50;;;7.30;;
80392;SDS011;69719;45.544;10.218;2023-06-14T02:04:40;11.90;;;7.57;;
80392;SDS011;69719;45.544;10.218;2023-06-14T02:07:06;11.85;;;8.40;;
80392;SDS011;69719;45.544;10.218;2023-06-14T02:09:33;14.00;;;7.20;;
80392;SDS011;69719;45.544;10.218;2023-06-14T02:11:58;12.88;;;7.80;;
80392;SDS011;69719;45.544;10.218;2023-06-14T02:14:24;12.85;;;8.38;;
80392;SDS011;69719;45.544;10.218;2023-06-14T02:16:50;13.98;;;7.90;;
80392;SDS011;69719;45.544;10.218;2023-06-14T02:19:16;18.00;;;9.75;;
80392;SDS011;69719;45.544;10.218;2023-06-14T02:21:42;13.27;;;8.52;;
80392;SDS011;69719;45.544;10.218;2023-06-14T02:24:08;13.10;;;8.18;;
80392;SDS011;69719;45.544;10.218;2023-06-14T02:26:34;17.20;;;8.10;;
80392;SDS011;69719;45.544;10.218;2023-06-14T02:28:59;13.52;;;8.73;;
80392;SDS011;69719;45.544;10.218;2023-06-14T02:31:25;15.52;;;8.65;;
80392;SDS011;69719;45.544;10.218;2023-06-14T02:33:51;16.65;;;8.98;;
80392;SDS011;69719;45.544;10.218;2023-06-14T02:36:16;14.38;;;8.98;;
80392;SDS011;69719;45.544;10.218;2023-06-14T02:38:42;16.90;;;9.40;;
80392;SDS011;69719;45.544;10.218;2023-06-14T02:41:07;18.92;;;9.45;;
80392;SDS011;69719;45.544;10.218;2023-06-14T02:43:33;15.25;;;9.25;;
80392;SDS011;69719;45.544;10.218;2023-06-14T02:45:58;16.20;;;9.65;;
80392;SDS011;69719;45.544;10.218;2023-06-14T02:48:24;14.98;;;9.38;;
80392;SDS011;69719;45.544;10.218;2023-06-14T02:50:49;12.50;;;8.80;;
80392;SDS011;69719;45.544;10.218;2023-06-14T02:53:16;12.73;;;8.32;;
80392;SDS011;69719;45.544;10.218;2023-06-14T02:55:42;14.10;;;8.57;;
80392;SDS011;69719;45.544;10.218;2023-06-14T02:58:09;12.52;;;8.27;;
80392;SDS011;69719;45.544;10.218;2023-06-14T03:00:35;12.93;;;7.38;;
80392;SDS011;69719;45.544;10.218;2023-06-14T03:03:01;12.23;;;7.30;;
80392;SDS011;69719;45.544;10.218;2023-06-14T03:05:27;10.80;;;7.18;;
80392;SDS011;69719;45.544;10.218;2023-06-14T03:07:53;11.05;;;6.88;;
80392;SDS011;69719;45.544;10.218;2023-06-14T03:10:19;12.35;;;6.70;;
80392;SDS011;69719;45.544;10.218;2023-06-14T03:12:44;12.57;;;6.63;;
80392;SDS011;69719;45.544;10.218;2023-06-14T03:15:10;8.77;;;6.53;;
80392;SDS011;69719;45.544;10.218;2023-06-14T03:17:38;10.73;;;7.05;;
80392;SDS011;69719;45.544;10.218;2023-06-14T03:20:04;10.75;;;6.53;;
80392;SDS011;69719;45.544;10.218;2023-06-14T03:22:30;9.95;;;6.70;;
80392;SDS011;69719;45.544;10.218;2023-06-14T03:24:58;10.73;;;6.88;;
80392;SDS011;69719;45.544;10.218;2023-06-14T03:27:24;9.57;;;6.45;;
80392;SDS011;69719;45.544;10.218;2023-06-14T03:29:50;10.90;;;6.43;;
80392;SDS011;69719;45.544;10.218;2023-06-14T03:32:16;16.10;;;7.95;;
80392;SDS011;69719;45.544;10.218;2023-06-14T03:34:41;13.15;;;7.20;;
80392;SDS011;69719;45.544;10.218;2023-06-14T03:37:07;12.07;;;6.90;;
80392;SDS011;69719;45.544;10.218;2023-06-14T03:39:33;9.50;;;6.72;;
80392;SDS011;69719;45.544;10.218;2023-06-14T03:41:58;8.98;;;7.03;;
80392;SDS011;69719;45.544;10.218;2023-06-14T03:44:26;12.93;;;6.57;;
80392;SDS011;69719;45.544;10.218;2023-06-14T03:46:52;12.82;;;7.53;;
80392;SDS011;69719;45.544;10.218;2023-06-14T03:49:18;10.63;;;6.95;;
80392;SDS011;69719;45.544;10.218;2023-06-14T03:51:43;9.30;;;6.57;;
80392;SDS011;69719;45.544;10.218;2023-06-14T03:54:09;13.15;;;6.72;;
80392;SDS011;69719;45.544;10.218;2023-06-14T03:56:35;9.40;;;6.43;;
80392;SDS011;69719;45.544;10.218;2023-06-14T03:59:01;9.15;;;6.57;;
80392;SDS011;69719;45.544;10.218;2023-06-14T04:01:27;10.27;;;7.25;;
80392;SDS011;69719;45.544;10.218;2023-06-14T04:03:55;9.43;;;6.38;;
80392;SDS011;69719;45.544;10.218;2023-06-14T04:06:21;13.48;;;6.45;;
80392;SDS011;69719;45.544;10.218;2023-06-14T04:08:50;13.60;;;6.75;;
80392;SDS011;69719;45.544;10.218;2023-06-14T04:11:16;10.02;;;6.32;;
80392;SDS011;69719;45.544;10.218;2023-06-14T04:13:41;10.23;;;6.50;;
80392;SDS011;69719;45.544;10.218;2023-06-14T04:16:07;12.13;;;7.00;;
80392;SDS011;69719;45.544;10.218;2023-06-14T04:18:32;12.07;;;7.07;;
80392;SDS011;69719;45.544;10.218;2023-06-14T04:20:58;12.77;;;6.57;;
80392;SDS011;69719;45.544;10.218;2023-06-14T04:23:24;11.45;;;6.72;;
80392;SDS011;69719;45.544;10.218;2023-06-14T04:25:49;9.70;;;6.50;;
80392;SDS011;69719;45.544;10.218;2023-06-14T04:28:15;13.35;;;7.22;;
80392;SDS011;69719;45.544;10.218;2023-06-14T04:30:42;13.77;;;6.82;;
80392;SDS011;69719;45.544;10.218;2023-06-14T04:33:09;12.57;;;6.95;;
80392;SDS011;69719;45.544;10.218;2023-06-14T04:35:35;10.95;;;6.47;;
80392;SDS011;69719;45.544;10.218;2023-06-14T04:38:02;9.65;;;6.10;;
80392;SDS011;69719;45.544;10.218;2023-06-14T04:40:35;12.13;;;6.15;;
80392;SDS011;69719;45.544;10.218;2023-06-14T04:43:10;13.50;;;6.13;;
80392;SDS011;69719;45.544;10.218;2023-06-14T04:45:42;9.73;;;6.90;;
80392;SDS011;69719;45.544;10.218;2023-06-14T04:48:10;12.32;;;6.32;;
80392;SDS011;69719;45.544;10.218;2023-06-14T04:50:36;13.05;;;6.70;;
80392;SDS011;69719;45.544;10.218;2023-06-14T04:53:02;12.52;;;6.95;;
80392;SDS011;69719;45.544;10.218;2023-06-14T04:55:28;11.38;;;6.07;;
80392;SDS011;69719;45.544;10.218;2023-06-14T04:57:53;9.65;;;6.40;;
80392;SDS011;69719;45.544;10.218;2023-06-14T05:00:19;13.45;;;6.20;;
80392;SDS011;69719;45.544;10.218;2023-06-14T05:02:46;12.68;;;5.90;;
80392;SDS011;69719;45.544;10.218;2023-06-14T05:05:12;14.15;;;6.70;;
80392;SDS011;69719;45.544;10.218;2023-06-14T05:07:37;10.60;;;6.05;;
80392;SDS011;69719;45.544;10.218;2023-06-14T05:10:03;9.98;;;6.07;;
80392;SDS011;69719;45.544;10.218;2023-06-14T05:12:30;11.75;;;5.63;;
80392;SDS011;69719;45.544;10.218;2023-06-14T05:14:55;9.43;;;5.63;;
80392;SDS011;69719;45.544;10.218;2023-06-14T05:17:23;13.82;;;5.70;;
80392;SDS011;69719;45.544;10.218;2023-06-14T05:19:49;10.60;;;5.35;;
80392;SDS011;69719;45.544;10.218;2023-06-14T05:22:14;12.35;;;5.30;;
80392;SDS011;69719;45.544;10.218;2023-06-14T05:24:40;9.75;;;5.30;;
80392;SDS011;69719;45.544;10.218;2023-06-14T05:27:06;9.40;;;5.47;;
80392;SDS011;69719;45.544;10.218;2023-06-14T05:29:32;9.52;;;5.28;;
80392;SDS011;69719;45.544;10.218;2023-06-14T05:31:57;10.15;;;5.47;;
80392;SDS011;69719;45.544;10.218;2023-06-14T05:34:23;11.98;;;6.20;;
80392;SDS011;69719;45.544;10.218;2023-06-14T05:36:48;10.57;;;5.22;;
80392;SDS011;69719;45.544;10.218;2023-06-14T05:39:14;10.63;;;5.20;;
80392;SDS011;69719;45.544;10.218;2023-06-14T05:41:39;7.03;;;4.95;;
80392;SDS011;69719;45.544;10.218;2023-06-14T05:44:05;9.95;;;4.95;;
80392;SDS011;69719;45.544;10.218;2023-06-14T05:46:31;8.65;;;5.07;;
80392;SDS011;69719;45.544;10.218;2023-06-14T05:48:56;11.63;;;5.40;;
80392;SDS011;69719;45.544;10.218;2023-06-14T05:51:22;7.97;;;4.80;;
80392;SDS011;69719;45.544;10.218;2023-06-14T05:53:50;9.68;;;6.05;;
80392;SDS011;69719;45.544;10.218;2023-06-14T05:56:15;12.10;;;5.60;;
80392;SDS011;69719;45.544;10.218;2023-06-14T05:58:45;11.13;;;5.32;;
80392;SDS011;69719;45.544;10.218;2023-06-14T06:01:11;11.38;;;5.45;;
80392;SDS011;69719;45.544;10.218;2023-06-14T06:03:38;10.50;;;5.50;;
80392;SDS011;69719;45.544;10.218;2023-06-14T06:06:03;9.82;;;5.65;;
80392;SDS011;69719;45.544;10.218;2023-06-14T06:08:29;11.02;;;5.63;;
80392;SDS011;69719;45.544;10.218;2023-06-14T06:10:55;10.15;;;5.30;;
80392;SDS011;69719;45.544;10.218;2023-06-14T06:13:20;8.98;;;5.45;;
80392;SDS011;69719;45.544;10.218;2023-06-14T06:15:46;9.30;;;4.97;;
80392;SDS011;69719;45.544;10.218;2023-06-14T06:18:11;8.88;;;5.22;;
80392;SDS011;69719;45.544;10.218;2023-06-14T06:20:37;8.10;;;4.97;;
80392;SDS011;69719;45.544;10.218;2023-06-14T06:23:02;18.38;;;6.10;;
80392;SDS011;69719;45.544;10.218;2023-06-14T06:25:28;30.08;;;9.52;;
80392;SDS011;69719;45.544;10.218;2023-06-14T06:27:54;9.55;;;5.22;;
80392;SDS011;69719;45.544;10.218;2023-06-14T06:30:23;12.75;;;5.53;;
80392;SDS011;69719;45.544;10.218;2023-06-14T06:32:49;13.45;;;6.03;;
80392;SDS011;69719;45.544;10.218;2023-06-14T06:35:15;12.05;;;4.97;;
80392;SDS011;69719;45.544;10.218;2023-06-14T06:37:41;10.13;;;5.10;;
80392;SDS011;69719;45.544;10.218;2023-06-14T06:40:07;10.63;;;5.65;;
80392;SDS011;69719;45.544;10.218;2023-06-14T06:42:33;9.65;;;5.78;;
80392;SDS011;69719;45.544;10.218;2023-06-14T06:44:59;8.52;;;4.85;;
80392;SDS011;69719;45.544;10.218;2023-06-14T06:47:25;8.30;;;5.82;;
80392;SDS011;69719;45.544;10.218;2023-06-14T06:49:50;17.92;;;6.38;;
80392;SDS011;69719;45.544;10.218;2023-06-14T06:52:16;6.90;;;4.57;;
80392;SDS011;69719;45.544;10.218;2023-06-14T06:54:42;17.05;;;4.75;;
80392;SDS011;69719;45.544;10.218;2023-06-14T06:57:07;6.43;;;4.28;;
80392;SDS011;69719;45.544;10.218;2023-06-14T06:59:33;8.65;;;4.47;;
80392;SDS011;69719;45.544;10.218;2023-06-14T07:01:59;10.88;;;5.28;;
80392;SDS011;69719;45.544;10.218;2023-06-14T07:04:24;7.03;;;4.43;;
80392;SDS011;69719;45.544;10.218;2023-06-14T07:06:50;6.38;;;4.53;;
80392;SDS011;69719;45.544;10.218;2023-06-14T07:09:15;6.00;;;4.40;;
80392;SDS011;69719;45.544;10.218;2023-06-14T07:11:42;5.28;;;4.25;;
80392;SDS011;69719;45.544;10.218;2023-06-14T07:14:08;7.97;;;4.53;;
80392;SDS011;69719;45.544;10.218;2023-06-14T07:16:34;10.20;;;5.45;;
80392;SDS011;69719;45.544;10.218;2023-06-14T07:19:01;9.50;;;4.45;;
80392;SDS011;69719;45.544;10.218;2023-06-14T07:21:27;8.07;;;4.70;;
80392;SDS011;69719;45.544;10.218;2023-06-14T07:23:53;7.07;;;4.90;;
80392;SDS011;69719;45.544;10.218;2023-06-14T07:26:19;8.85;;;5.07;;
80392;SDS011;69719;45.544;10.218;2023-06-14T07:28:46;10.55;;;5.28;;
80392;SDS011;69719;45.544;10.218;2023-06-14T07:31:12;12.25;;;5.30;;
80392;SDS011;69719;45.544;10.218;2023-06-14T07:33:38;10.88;;;5.10;;
80392;SDS011;69719;45.544;10.218;2023-06-14T07:36:04;11.30;;;5.40;;
80392;SDS011;69719;45.544;10.218;2023-06-14T07:38:29;11.32;;;5.25;;
80392;SDS011;69719;45.544;10.218;2023-06-14T07:40:56;13.45;;;5.93;;
80392;SDS011;69719;45.544;10.218;2023-06-14T07:43:22;7.82;;;5.10;;
80392;SDS011;69719;45.544;10.218;2023-06-14T07:45:47;9.52;;;4.65;;
80392;SDS011;69719;45.544;10.218;2023-06-14T07:48:13;7.95;;;4.57;;
80392;SDS011;69719;45.544;10.218;2023-06-14T07:50:38;9.25;;;4.68;;
80392;SDS011;69719;45.544;10.218;2023-06-14T07:53:04;9.23;;;4.93;;
80392;SDS011;69719;45.544;10.218;2023-06-14T07:55:29;8.02;;;4.80;;
80392;SDS011;69719;45.544;10.218;2023-06-14T07:57:57;28.77;;;19.88;;
80392;SDS011;69719;45.544;10.218;2023-06-14T08:00:23;40.47;;;32.38;;
80392;SDS011;69719;45.544;10.218;2023-06-14T08:02:49;31.38;;;20.40;;
80392;SDS011;69719;45.544;10.218;2023-06-14T08:05:17;20.00;;;7.78;;
80392;SDS011;69719;45.544;10.218;2023-06-14T08:07:45;32.78;;;23.55;;
80392;SDS011;69719;45.544;10.218;2023-06-14T08:10:11;29.40;;;15.45;;
80392;SDS011;69719;45.544;10.218;2023-06-14T08:12:36;8.45;;;5.18;;
80392;SDS011;69719;45.544;10.218;2023-06-14T08:15:02;14.50;;;7.40;;
80392;SDS011;69719;45.544;10.218;2023-06-14T08:17:30;19.98;;;10.45;;
80392;SDS011;69719;45.544;10.218;2023-06-14T08:19:56;26.50;;;14.43;;
80392;SDS011;69719;45.544;10.218;2023-06-14T08:22:22;11.77;;;6.18;;
80392;SDS011;69719;45.544;10.218;2023-06-14T08:24:49;19.20;;;8.95;;
80392;SDS011;69719;45.544;10.218;2023-06-14T08:27:15;11.95;;;6.90;;
80392;SDS011;69719;45.544;10.218;2023-06-14T08:29:41;17.02;;;9.57;;
80392;SDS011;69719;45.544;10.218;2023-06-14T08:32:06;18.33;;;8.73;;
80392;SDS011;69719;45.544;10.218;2023-06-14T08:34:32;15.75;;;8.70;;
80392;SDS011;69719;45.544;10.218;2023-06-14T08:36:57;19.52;;;9.55;;
80392;SDS011;69719;45.544;10.218;2023-06-14T08:39:23;18.83;;;9.43;;
80392;SDS011;69719;45.544;10.218;2023-06-14T08:41:48;19.35;;;9.23;;
80392;SDS011;69719;45.544;10.218;2023-06-14T08:44:17;16.35;;;8.38;;
80392;SDS011;69719;45.544;10.218;2023-06-14T08:46:43;17.27;;;9.90;;
80392;SDS011;69719;45.544;10.218;2023-06-14T08:49:11;19.60;;;9.23;;
80392;SDS011;69719;45.544;10.218;2023-06-14T08:51:41;18.77;;;8.25;;
80392;SDS011;69719;45.544;10.218;2023-06-14T08:54:08;14.98;;;8.40;;
80392;SDS011;69719;45.544;10.218;2023-06-14T08:56:37;14.45;;;8.38;;
80392;SDS011;69719;45.544;10.218;2023-06-14T08:59:04;18.73;;;8.65;;
80392;SDS011;69719;45.544;10.218;2023-06-14T09:01:35;14.90;;;8.18;;
80392;SDS011;69719;45.544;10.218;2023-06-14T09:04:01;16.67;;;8.02;;
80392;SDS011;69719;45.544;10.218;2023-06-14T09:06:30;17.92;;;8.63;;
80392;SDS011;69719;45.544;10.218;2023-06-14T09:08:55;15.88;;;8.48;;
80392;SDS011;69719;45.544;10.218;2023-06-14T09:11:23;18.05;;;8.88;;
80392;SDS011;69719;45.544;10.218;2023-06-14T09:13:51;17.83;;;9.10;;
80392;SDS011;69719;45.544;10.218;2023-06-14T09:16:17;18.98;;;9.35;;
80392;SDS011;69719;45.544;10.218;2023-06-14T09:18:47;17.45;;;8.10;;
80392;SDS011;69719;45.544;10.218;2023-06-14T09:21:13;16.60;;;7.60;;
80392;SDS011;69719;45.544;10.218;2023-06-14T09:23:46;13.55;;;7.00;;
80392;SDS011;69719;45.544;10.218;2023-06-14T09:26:16;12.85;;;8.10;;
80392;SDS011;69719;45.544;10.218;2023-06-14T09:28:48;12.85;;;6.72;;
80392;SDS011;69719;45.544;10.218;2023-06-14T09:31:15;11.77;;;7.30;;
80392;SDS011;69719;45.544;10.218;2023-06-14T09:33:46;13.57;;;6.80;;
80392;SDS011;69719;45.544;10.218;2023-06-14T09:36:16;11.10;;;6.35;;
80392;SDS011;69719;45.544;10.218;2023-06-14T09:38:56;16.80;;;6.68;;
80392;SDS011;69719;45.544;10.218;2023-06-14T09:41:38;12.50;;;6.43;;
80392;SDS011;69719;45.544;10.218;2023-06-14T09:44:05;11.82;;;5.45;;
80392;SDS011;69719;45.544;10.218;2023-06-14T09:46:35;10.55;;;5.95;;
80392;SDS011;69719;45.544;10.218;2023-06-14T09:49:01;10.63;;;5.53;;
80392;SDS011;69719;45.544;10.218;2023-06-14T09:51:28;13.48;;;5.60;;
80392;SDS011;69719;45.544;10.218;2023-06-14T09:53:58;7.82;;;4.93;;
80392;SDS011;69719;45.544;10.218;2023-06-14T09:56:30;9.65;;;5.30;;
80392;SDS011;69719;45.544;10.218;2023-06-14T09:58:59;14.48;;;5.65;;
80392;SDS011;69719;45.544;10.218;2023-06-14T10:01:25;10.27;;;5.82;;
80392;SDS011;69719;45.544;10.218;2023-06-14T10:03:55;9.73;;;5.47;;
80392;SDS011;69719;45.544;10.218;2023-06-14T10:06:41;9.15;;;5.07;;
80392;SDS011;69719;45.544;10.218;2023-06-14T10:09:10;9.38;;;4.85;;
80392;SDS011;69719;45.544;10.218;2023-06-14T10:11:37;8.32;;;5.10;;
80392;SDS011;69719;45.544;10.218;2023-06-14T10:14:08;8.73;;;4.70;;
80392;SDS011;69719;45.544;10.218;2023-06-14T10:16:56;9.88;;;5.35;;
80392;SDS011;69719;45.544;10.218;2023-06-14T10:25:10;9.27;;;5.30;;
80392;SDS011;69719;45.544;10.218;2023-06-14T10:27:38;9.20;;;5.30;;
80392;SDS011;69719;45.544;10.218;2023-06-14T10:30:05;11.60;;;5.28;;
80392;SDS011;69719;45.544;10.218;2023-06-14T10:32:32;8.57;;;5.18;;
80392;SDS011;69719;45.544;10.218;2023-06-14T10:34:59;8.48;;;5.25;;
80392;SDS011;69719;45.544;10.218;2023-06-14T10:37:26;15.32;;;5.03;;
80392;SDS011;69719;45.544;10.218;2023-06-14T10:39:52;7.40;;;4.57;;
80392;SDS011;69719;45.544;10.218;2023-06-14T10:42:21;8.38;;;4.50;;
80392;SDS011;69719;45.544;10.218;2023-06-14T10:44:57;8.55;;;4.55;;
80392;SDS011;69719;45.544;10.218;2023-06-14T10:52:33;7.75;;;5.28;;
80392;SDS011;69719;45.544;10.218;2023-06-14T10:57:39;9.50;;;5.47;;
80392;SDS011;69719;45.544;10.218;2023-06-14T11:00:16;13.98;;;6.88;;
80392;SDS011;69719;45.544;10.218;2023-06-14T11:11:10;12.05;;;5.15;;
80392;SDS011;69719;45.544;10.218;2023-06-14T11:13:38;8.52;;;4.88;;
80392;SDS011;69719;45.544;10.218;2023-06-14T11:16:14;7.43;;;4.93;;
80392;SDS011;69719;45.544;10.218;2023-06-14T11:18:41;9.27;;;4.68;;
80392;SDS011;69719;45.544;10.218;2023-06-14T11:21:07;11.10;;;4.70;;
80392;SDS011;69719;45.544;10.218;2023-06-14T11:23:36;7.22;;;4.57;;
80392;SDS011;69719;45.544;10.218;2023-06-14T11:26:02;8.00;;;4.20;;
80392;SDS011;69719;45.544;10.218;2023-06-14T11:28:39;9.68;;;4.90;;
80392;SDS011;69719;45.544;10.218;2023-06-14T11:31:05;9.07;;;4.50;;
80392;SDS011;69719;45.544;10.218;2023-06-14T11:33:32;9.38;;;5.15;;
80392;SDS011;69719;45.544;10.218;2023-06-14T11:35:57;6.60;;;4.43;;
80392;SDS011;69719;45.544;10.218;2023-06-14T11:38:23;12.13;;;4.57;;
80392;SDS011;69719;45.544;10.218;2023-06-14T11:40:49;9.35;;;4.70;;
80392;SDS011;69719;45.544;10.218;2023-06-14T11:43:15;6.72;;;3.85;;
80392;SDS011;69719;45.544;10.218;2023-06-14T11:45:41;9.55;;;4.72;;
80392;SDS011;69719;45.544;10.218;2023-06-14T11:48:07;6.22;;;4.30;;
80392;SDS011;69719;45.544;10.218;2023-06-14T11:50:32;7.85;;;4.43;;
80392;SDS011;69719;45.544;10.218;2023-06-14T11:53:02;15.82;;;4.75;;
80392;SDS011;69719;45.544;10.218;2023-06-14T11:55:32;10.63;;;3.78;;
80392;SDS011;69719;45.544;10.218;2023-06-14T11:58:04;6.25;;;4.05;;
80392;SDS011;69719;45.544;10.218;2023-06-14T12:00:30;17.52;;;6.85;;
80392;SDS011;69719;45.544;10.218;2023-06-14T12:02:56;12.55;;;5.43;;
80392;SDS011;69719;45.544;10.218;2023-06-14T12:05:22;11.55;;;5.60;;
80392;SDS011;69719;45.544;10.218;2023-06-14T12:07:49;8.85;;;4.53;;
80392;SDS011;69719;45.544;10.218;2023-06-14T12:10:15;7.65;;;4.10;;
80392;SDS011;69719;45.544;10.218;2023-06-14T12:12:42;11.45;;;5.38;;
80392;SDS011;69719;45.544;10.218;2023-06-14T12:15:08;13.43;;;4.50;;
80392;SDS011;69719;45.544;10.218;2023-06-14T12:17:37;6.28;;;4.00;;
80392;SDS011;69719;45.544;10.218;2023-06-14T12:20:13;11.65;;;4.63;;
80392;SDS011;69719;45.544;10.218;2023-06-14T12:22:53;4.88;;;3.55;;
80392;SDS011;69719;45.544;10.218;2023-06-14T12:27:56;9.02;;;4.50;;
80392;SDS011;69719;45.544;10.218;2023-06-14T12:30:22;13.07;;;4.32;;
80392;SDS011;69719;45.544;10.218;2023-06-14T12:32:48;12.65;;;5.35;;
80392;SDS011;69719;45.544;10.218;2023-06-14T12:35:14;7.40;;;4.50;;
80392;SDS011;69719;45.544;10.218;2023-06-14T12:37:40;10.18;;;4.38;;
80392;SDS011;69719;45.544;10.218;2023-06-14T12:40:06;10.07;;;4.50;;
80392;SDS011;69719;45.544;10.218;2023-06-14T12:42:32;7.93;;;4.82;;
80392;SDS011;69719;45.544;10.218;2023-06-14T12:44:59;9.18;;;4.95;;
80392;SDS011;69719;45.544;10.218;2023-06-14T12:47:24;14.13;;;4.93;;
80392;SDS011;69719;45.544;10.218;2023-06-14T12:49:50;9.15;;;5.00;;
80392;SDS011;69719;45.544;10.218;2023-06-14T12:52:16;20.35;;;14.52;;
80392;SDS011;69719;45.544;10.218;2023-06-14T12:54:41;7.68;;;4.63;;
80392;SDS011;69719;45.544;10.218;2023-06-14T12:57:07;7.85;;;4.90;;
80392;SDS011;69719;45.544;10.218;2023-06-14T12:59:32;6.30;;;4.68;;
80392;SDS011;69719;45.544;10.218;2023-06-14T13:02:14;12.38;;;6.72;;
80392;SDS011;69719;45.544;10.218;2023-06-14T13:04:41;15.10;;;5.88;;
80392;SDS011;69719;45.544;10.218;2023-06-14T13:07:06;13.88;;;6.55;;
80392;SDS011;69719;45.544;10.218;2023-06-14T13:09:32;12.00;;;5.47;;
80392;SDS011;69719;45.544;10.218;2023-06-14T13:11:57;5.90;;;4.47;;
80392;SDS011;69719;45.544;10.218;2023-06-14T13:14:23;5.78;;;3.75;;
80392;SDS011;69719;45.544;10.218;2023-06-14T13:16:48;5.97;;;3.67;;
80392;SDS011;69719;45.544;10.218;2023-06-14T13:19:14;12.13;;;5.10;;
80392;SDS011;69719;45.544;10.218;2023-06-14T13:21:39;14.85;;;6.57;;
80392;SDS011;69719;45.544;10.218;2023-06-14T13:24:05;5.88;;;4.15;;
80392;SDS011;69719;45.544;10.218;2023-06-14T13:26:30;5.90;;;3.30;;
80392;SDS011;69719;45.544;10.218;2023-06-14T13:28:57;7.97;;;4.63;;
80392;SDS011;69719;45.544;10.218;2023-06-14T13:31:22;4.38;;;3.25;;
80392;SDS011;69719;45.544;10.218;2023-06-14T13:33:48;11.40;;;5.90;;
80392;SDS011;69719;45.544;10.218;2023-06-14T13:36:13;5.35;;;3.50;;
80392;SDS011;69719;45.544;10.218;2023-06-14T13:38:39;5.90;;;4.35;;
80392;SDS011;69719;45.544;10.218;2023-06-14T13:41:04;8.50;;;3.85;;
80392;SDS011;69719;45.544;10.218;2023-06-14T13:43:30;8.57;;;4.32;;
80392;SDS011;69719;45.544;10.218;2023-06-14T13:45:55;10.68;;;4.20;;
80392;SDS011;69719;45.544;10.218;2023-06-14T13:48:21;6.88;;;4.40;;
80392;SDS011;69719;45.544;10.218;2023-06-14T13:50:47;10.13;;;4.97;;
80392;SDS011;69719;45.544;10.218;2023-06-14T13:53:12;9.40;;;4.80;;
80392;SDS011;69719;45.544;10.218;2023-06-14T13:55:39;8.88;;;5.57;;
80392;SDS011;69719;45.544;10.218;2023-06-14T13:58:04;7.63;;;4.80;;
80392;SDS011;69719;45.544;10.218;2023-06-14T14:00:30;8.60;;;5.07;;
80392;SDS011;69719;45.544;10.218;2023-06-14T14:02:55;12.57;;;5.43;;
80392;SDS011;69719;45.544;10.218;2023-06-14T14:05:22;6.25;;;4.45;;
80392;SDS011;69719;45.544;10.218;2023-06-14T14:07:53;12.02;;;4.78;;
80392;SDS011;69719;45.544;10.218;2023-06-14T14:10:19;6.43;;;4.00;;
80392;SDS011;69719;45.544;10.218;2023-06-14T14:12:45;5.82;;;4.10;;
80392;SDS011;69719;45.544;10.218;2023-06-14T14:15:11;5.28;;;3.45;;
80392;SDS011;69719;45.544;10.218;2023-06-14T14:17:40;13.32;;;5.20;;
80392;SDS011;69719;45.544;10.218;2023-06-14T14:20:06;10.10;;;4.50;;
80392;SDS011;69719;45.544;10.218;2023-06-14T14:22:32;4.82;;;3.70;;
80392;SDS011;69719;45.544;10.218;2023-06-14T14:24:58;7.05;;;4.00;;
80392;SDS011;69719;45.544;10.218;2023-06-14T14:27:23;9.18;;;3.70;;
80392;SDS011;69719;45.544;10.218;2023-06-14T14:29:48;13.95;;;8.57;;
80392;SDS011;69719;45.544;10.218;2023-06-14T14:32:14;10.07;;;4.70;;
80392;SDS011;69719;45.544;10.218;2023-06-14T14:34:40;10.35;;;4.63;;
80392;SDS011;69719;45.544;10.218;2023-06-14T14:37:05;6.60;;;4.50;;
80392;SDS011;69719;45.544;10.218;2023-06-14T14:39:31;5.10;;;3.58;;
80392;SDS011;69719;45.544;10.218;2023-06-14T14:41:57;6.82;;;3.38;;
80392;SDS011;69719;45.544;10.218;2023-06-14T14:44:22;7.90;;;4.05;;
80392;SDS011;69719;45.544;10.218;2023-06-14T14:46:47;7.38;;;4.22;;
80392;SDS011;69719;45.544;10.218;2023-06-14T14:49:16;8.93;;;4.50;;
80392;SDS011;69719;45.544;10.218;2023-06-14T14:51:42;8.98;;;4.57;;
80392;SDS011;69719;45.544;10.218;2023-06-14T14:54:07;13.60;;;5.60;;